Time;durP1;ratioP1;P1;durP2;ratioP2;P2;SDS_P1;SDS_P2;PMS_P1;PMS_P2;Temp;Humidity;BMP_temperature;BMP_pressure;BME280_temperature;BME280_humidity;BME280_pressure;Samples;Min_cycle;Max_cycle;Signal;HPM_P1;HPM_P2
2022/12/19 00:01:57;;;;;;;25.50;13.73;;;-3.40;99.90;;;;;;5031141;28;20238;-74
2022/12/19 00:04:24;;;;;;;25.03;13.63;;;-3.30;99.90;;;;;;5034800;28;20234;-74
2022/12/19 00:06:51;;;;;;;24.60;13.80;;;-3.30;99.90;;;;;;5040425;28;20236;-75
2022/12/19 00:09:18;;;;;;;23.23;13.83;;;-3.30;99.90;;;;;;5050129;28;20279;-75
2022/12/19 00:11:47;;;;;;;24.27;13.57;;;-3.30;99.90;;;;;;5026621;28;20249;-74
2022/12/19 00:14:15;;;;;;;26.43;14.77;;;-3.30;99.90;;;;;;5023350;28;20334;-75
2022/12/19 00:16:42;;;;;;;24.23;13.63;;;-3.30;99.90;;;;;;5021655;28;20220;-75
2022/12/19 00:19:10;;;;;;;28.20;13.53;;;-3.30;99.90;;;;;;5035017;28;20219;-75
2022/12/19 00:21:37;;;;;;;26.00;14.27;;;-3.30;99.90;;;;;;5041639;28;20772;-75
2022/12/19 00:24:06;;;;;;;24.20;14.23;;;-3.30;99.90;;;;;;5035001;28;20298;-74
2022/12/19 00:26:35;;;;;;;21.77;13.30;;;-3.30;99.90;;;;;;5040344;28;20222;-74
2022/12/19 00:29:04;;;;;;;23.53;13.50;;;-3.40;99.90;;;;;;5032154;28;20856;-75
2022/12/19 00:31:34;;;;;;;27.27;13.93;;;-3.40;99.90;;;;;;5037268;28;20231;-75
2022/12/19 00:34:01;;;;;;;23.17;13.90;;;-3.40;99.90;;;;;;5040919;28;20266;-74
2022/12/19 00:36:29;;;;;;;25.70;14.10;;;-3.40;99.90;;;;;;5047710;28;20236;-74
2022/12/19 00:38:58;;;;;;;26.07;14.17;;;-3.50;99.90;;;;;;5040606;28;20256;-74
2022/12/19 00:41:27;;;;;;;25.20;14.17;;;-3.50;99.90;;;;;;5037095;28;20670;-75
2022/12/19 00:43:56;;;;;;;26.50;14.13;;;-3.50;99.90;;;;;;5037302;28;20641;-76
2022/12/19 00:46:24;;;;;;;24.13;14.07;;;-3.50;99.90;;;;;;5043668;28;20269;-75
2022/12/19 00:48:52;;;;;;;28.20;14.10;;;-3.50;99.90;;;;;;5037492;28;20222;-74
2022/12/19 00:51:21;;;;;;;23.73;13.83;;;-3.50;99.90;;;;;;5037183;28;20228;-75
2022/12/19 00:53:50;;;;;;;22.17;12.67;;;-3.40;99.90;;;;;;5031543;28;20218;-74
2022/12/19 00:56:21;;;;;;;27.23;15.03;;;-3.40;99.90;;;;;;5030443;28;20309;-74
2022/12/19 00:58:48;;;;;;;24.83;13.17;;;-3.40;99.90;;;;;;5026050;28;20221;-74
2022/12/19 01:01:17;;;;;;;26.40;13.87;;;-3.50;99.90;;;;;;5036632;28;20312;-74
2022/12/19 01:03:45;;;;;;;26.57;14.27;;;-3.40;99.90;;;;;;5031939;28;20308;-74
2022/12/19 01:06:14;;;;;;;23.63;13.40;;;-3.40;99.90;;;;;;5031396;28;20230;-73
2022/12/19 01:08:41;;;;;;;24.63;13.83;;;-3.40;99.90;;;;;;5031851;28;20920;-73
2022/12/19 01:11:08;;;;;;;24.40;13.30;;;-3.40;99.90;;;;;;5034753;28;20228;-74
2022/12/19 01:13:37;;;;;;;23.90;13.70;;;-3.40;99.90;;;;;;5037512;28;20306;-74
2022/12/19 01:16:05;;;;;;;28.03;13.60;;;-3.40;99.90;;;;;;5032653;28;20218;-74
2022/12/19 01:18:32;;;;;;;26.00;13.93;;;-3.40;99.90;;;;;;5035399;28;20247;-74
2022/12/19 01:21:05;;;;;;;23.83;13.37;;;-3.40;99.90;;;;;;5030365;28;20234;-76
2022/12/19 01:23:35;;;;;;;24.30;13.70;;;-3.40;99.90;;;;;;5034987;28;20241;-75
2022/12/19 01:26:02;;;;;;;27.93;14.07;;;-3.40;99.90;;;;;;5036271;28;20244;-75
2022/12/19 01:28:29;;;;;;;24.30;13.37;;;-3.30;99.90;;;;;;5029996;28;20702;-75
2022/12/19 01:30:59;;;;;;;25.93;14.30;;;-3.30;99.90;;;;;;5037432;28;20221;-75
2022/12/19 01:33:26;;;;;;;26.17;14.43;;;-3.30;99.90;;;;;;5038304;28;20312;-75
2022/12/19 01:35:53;;;;;;;28.40;14.03;;;-3.40;99.90;;;;;;5040384;28;20228;-75
2022/12/19 01:38:21;;;;;;;24.87;13.83;;;-3.40;99.90;;;;;;5032946;28;20347;-75
2022/12/19 01:40:54;;;;;;;25.53;13.33;;;-3.30;99.90;;;;;;5029923;28;20233;-76
2022/12/19 01:43:21;;;;;;;23.87;14.10;;;-3.30;99.90;;;;;;5032397;28;20323;-76
2022/12/19 01:45:54;;;;;;;27.10;13.80;;;-3.30;99.90;;;;;;5036354;28;20587;-75
2022/12/19 01:48:26;;;;;;;24.23;12.77;;;-3.30;99.90;;;;;;5038590;28;20243;-75
2022/12/19 01:50:56;;;;;;;22.80;13.20;;;-3.20;99.90;;;;;;5038747;28;20255;-75
2022/12/19 01:53:27;;;;;;;23.97;13.73;;;-3.20;99.90;;;;;;5038223;28;20229;-75
2022/12/19 01:55:57;;;;;;;25.27;14.10;;;-3.20;99.90;;;;;;5034652;28;20586;-75
2022/12/19 01:58:25;;;;;;;23.83;13.73;;;-3.20;99.90;;;;;;5035804;28;20316;-75
2022/12/19 02:00:52;;;;;;;22.70;12.90;;;-3.20;99.90;;;;;;5030144;28;20308;-75
2022/12/19 02:03:23;;;;;;;24.77;13.53;;;-3.20;99.90;;;;;;5039688;28;20222;-75
2022/12/19 02:05:51;;;;;;;24.80;13.63;;;-3.20;99.90;;;;;;5038785;28;20233;-75
2022/12/19 02:08:19;;;;;;;25.97;13.63;;;-3.20;99.90;;;;;;5039137;28;20220;-75
2022/12/19 02:10:46;;;;;;;25.57;13.97;;;-3.20;99.90;;;;;;5033396;28;20279;-75
2022/12/19 02:13:16;;;;;;;22.90;12.60;;;-3.20;99.90;;;;;;5028636;28;20221;-74
2022/12/19 02:15:49;;;;;;;23.50;14.00;;;-3.10;99.90;;;;;;5027921;28;20278;-74
2022/12/19 02:18:23;;;;;;;21.67;12.93;;;-3.10;99.90;;;;;;5039678;28;20301;-74
2022/12/19 02:21:28;;;;;;;23.20;12.87;;;-3.10;99.90;;;;;;5038896;28;20222;-74
2022/12/19 02:24:38;;;;;;;27.23;13.80;;;-3.10;99.90;;;;;;5002701;28;20224;-75
2022/12/19 02:27:29;;;;;;;24.03;12.67;;;-3.10;99.90;;;;;;5024922;28;22086;-75
2022/12/19 02:30:07;;;;;;;21.70;12.90;;;-3.00;99.90;;;;;;5020813;28;20779;-75
2022/12/19 02:32:48;;;;;;;26.87;13.20;;;-3.00;99.90;;;;;;5057236;28;20308;-74
2022/12/19 02:35:23;;;;;;;23.10;13.17;;;-3.00;99.90;;;;;;5025425;28;20222;-75
2022/12/19 02:37:56;;;;;;;23.03;12.30;;;-3.00;99.90;;;;;;5034653;28;20267;-74
2022/12/19 02:40:27;;;;;;;22.67;12.80;;;-3.00;99.90;;;;;;5035047;28;20291;-75
2022/12/19 02:42:58;;;;;;;24.70;12.63;;;-2.90;99.90;;;;;;5032732;28;20828;-75
2022/12/19 02:45:27;;;;;;;20.60;12.70;;;-2.90;99.90;;;;;;5039692;28;20248;-75
2022/12/19 02:47:56;;;;;;;21.53;13.20;;;-3.00;99.90;;;;;;5042227;28;20309;-75
2022/12/19 02:50:23;;;;;;;22.43;12.70;;;-2.90;99.90;;;;;;5040351;28;20218;-75
2022/12/19 02:52:51;;;;;;;21.43;12.03;;;-2.90;99.90;;;;;;5039356;28;20222;-75
2022/12/19 02:55:22;;;;;;;21.93;13.07;;;-2.90;99.90;;;;;;5040595;28;20221;-74
2022/12/19 02:58:05;;;;;;;23.40;13.07;;;-2.90;99.90;;;;;;5049281;28;20233;-74
2022/12/19 03:00:39;;;;;;;21.03;12.17;;;-2.90;99.90;;;;;;5034515;28;20239;-74
2022/12/19 03:03:13;;;;;;;21.53;12.17;;;-2.80;99.90;;;;;;5037659;28;20328;-74
2022/12/19 03:05:48;;;;;;;21.53;12.70;;;-2.80;99.90;;;;;;5023991;28;20286;-75
2022/12/19 03:08:23;;;;;;;23.13;13.23;;;-2.80;99.90;;;;;;5029764;28;20304;-74
2022/12/19 03:10:58;;;;;;;22.90;13.30;;;-2.80;99.90;;;;;;5025938;28;22129;-74
2022/12/19 03:13:29;;;;;;;21.47;12.30;;;-2.80;99.90;;;;;;5032208;28;20234;-75
2022/12/19 03:15:58;;;;;;;22.00;13.07;;;-2.70;99.90;;;;;;5032371;28;20217;-75
2022/12/19 03:18:27;;;;;;;22.13;13.33;;;-2.70;99.90;;;;;;5034877;28;20293;-74
2022/12/19 03:21:02;;;;;;;23.83;13.43;;;-2.60;99.90;;;;;;5034757;28;20230;-75
2022/12/19 03:23:29;;;;;;;23.77;13.17;;;-2.60;99.90;;;;;;5039634;28;20309;-74
2022/12/19 03:26:01;;;;;;;22.30;12.97;;;-2.70;99.90;;;;;;5039287;28;20226;-75
2022/12/19 03:28:36;;;;;;;21.80;13.47;;;-2.70;99.90;;;;;;5038002;28;20639;-75
2022/12/19 03:31:05;;;;;;;23.40;12.97;;;-2.60;99.90;;;;;;5023833;28;20591;-75
2022/12/19 03:33:34;;;;;;;23.90;13.17;;;-2.70;99.90;;;;;;5033284;28;20226;-75
2022/12/19 03:36:06;;;;;;;23.87;14.03;;;-2.60;99.90;;;;;;5028950;28;20278;-75
2022/12/19 03:38:35;;;;;;;22.93;12.90;;;-2.60;99.90;;;;;;5037781;28;20229;-74
2022/12/19 03:41:03;;;;;;;20.27;12.87;;;-2.50;99.90;;;;;;5039540;28;20225;-75
2022/12/19 03:43:30;;;;;;;21.60;13.67;;;-2.50;99.90;;;;;;5036504;28;20232;-75
2022/12/19 03:46:01;;;;;;;19.47;12.73;;;-2.50;99.90;;;;;;5028607;28;20633;-75
2022/12/19 03:48:36;;;;;;;23.23;13.53;;;-2.40;99.90;;;;;;5043320;28;20237;-75
2022/12/19 03:51:09;;;;;;;23.87;12.73;;;-2.50;99.90;;;;;;5042231;28;20233;-74
2022/12/19 03:53:47;;;;;;;22.27;12.80;;;-2.40;99.90;;;;;;5021706;28;20268;-74
2022/12/19 03:56:25;;;;;;;21.03;12.73;;;-2.40;99.90;;;;;;5036875;28;21009;-74
2022/12/19 03:58:58;;;;;;;20.73;13.27;;;-2.40;99.90;;;;;;5039266;28;20236;-74
2022/12/19 04:01:28;;;;;;;25.57;13.50;;;-2.30;99.90;;;;;;5033432;28;20222;-74
2022/12/19 04:03:58;;;;;;;21.20;12.90;;;-2.30;99.90;;;;;;5036589;28;20234;-74
2022/12/19 04:06:27;;;;;;;23.17;13.77;;;-2.30;99.90;;;;;;5039612;28;20736;-74
2022/12/19 04:08:54;;;;;;;22.80;12.83;;;-2.40;99.90;;;;;;5022363;28;20226;-75
2022/12/19 04:11:21;;;;;;;23.43;13.27;;;-2.30;99.90;;;;;;5039572;28;20306;-75
2022/12/19 04:13:51;;;;;;;23.97;13.33;;;-2.30;99.90;;;;;;5038750;28;20341;-81
2022/12/19 04:16:24;;;;;;;20.87;12.63;;;-2.40;99.90;;;;;;5036116;28;20224;-79
2022/12/19 04:18:56;;;;;;;21.43;12.50;;;-2.40;99.90;;;;;;5022748;28;20599;-78
2022/12/19 04:21:31;;;;;;;21.60;12.40;;;-2.30;99.90;;;;;;5028841;28;20239;-78
2022/12/19 04:24:04;;;;;;;23.93;13.77;;;-2.30;99.90;;;;;;5039591;28;20221;-78
2022/12/19 04:26:32;;;;;;;20.07;12.13;;;-2.30;99.90;;;;;;5027212;28;20322;-80
2022/12/19 04:29:04;;;;;;;22.37;12.80;;;-2.30;99.90;;;;;;5031427;28;20220;-78
2022/12/19 04:31:31;;;;;;;18.93;12.27;;;-2.30;99.90;;;;;;5038525;28;20638;-80
2022/12/19 04:33:58;;;;;;;21.37;13.63;;;-2.30;99.90;;;;;;5031333;28;20227;-81
2022/12/19 04:36:26;;;;;;;23.40;12.83;;;-2.30;99.90;;;;;;5038017;28;20316;-81
2022/12/19 04:38:53;;;;;;;20.77;12.33;;;-2.30;99.90;;;;;;5034567;28;20665;-80
2022/12/19 04:41:20;;;;;;;22.73;12.80;;;-2.30;99.90;;;;;;5028285;28;20707;-79
2022/12/19 04:43:46;;;;;;;22.90;12.43;;;-2.20;99.90;;;;;;5037400;28;20228;-82
2022/12/19 04:46:14;;;;;;;21.60;12.57;;;-2.20;99.90;;;;;;5037393;28;20271;-82
2022/12/19 04:48:40;;;;;;;20.70;12.33;;;-2.20;99.90;;;;;;5031956;28;20228;-79
2022/12/19 04:51:07;;;;;;;21.53;12.50;;;-2.20;99.90;;;;;;5037919;28;20214;-78
2022/12/19 04:53:35;;;;;;;21.87;12.73;;;-2.10;99.90;;;;;;5036806;28;20239;-79
2022/12/19 04:56:02;;;;;;;20.30;12.20;;;-2.10;99.90;;;;;;5036451;28;20215;-79
2022/12/19 04:58:29;;;;;;;18.70;11.80;;;-2.10;99.90;;;;;;5031165;28;20240;-78
2022/12/19 05:01:01;;;;;;;20.53;12.03;;;-2.10;99.90;;;;;;5034115;28;20311;-79
2022/12/19 05:03:27;;;;;;;20.70;12.03;;;-2.10;99.90;;;;;;5034614;28;20228;-78
2022/12/19 05:06:02;;;;;;;23.63;12.53;;;-2.10;99.90;;;;;;5042366;28;20327;-79
2022/12/19 05:08:29;;;;;;;21.63;12.47;;;-2.10;99.90;;;;;;5039439;28;20220;-79
2022/12/19 05:11:00;;;;;;;20.60;12.70;;;-2.00;99.90;;;;;;5035370;28;20320;-81
2022/12/19 05:13:27;;;;;;;23.70;12.33;;;-2.00;99.90;;;;;;5035496;28;20238;-80
2022/12/19 05:15:57;;;;;;;22.53;12.93;;;-2.00;99.90;;;;;;5041683;28;20232;-80
2022/12/19 05:18:24;;;;;;;22.53;12.77;;;-2.00;99.90;;;;;;5034956;28;20259;-80
2022/12/19 05:20:50;;;;;;;21.13;12.90;;;-1.90;99.90;;;;;;5038992;28;20286;-81
2022/12/19 05:23:17;;;;;;;20.77;12.27;;;-1.90;99.90;;;;;;5034200;28;20293;-80
2022/12/19 05:25:44;;;;;;;20.70;12.67;;;-1.90;99.90;;;;;;5028729;28;20273;-81
2022/12/19 05:28:13;;;;;;;21.07;12.30;;;-1.90;99.90;;;;;;5034888;28;20235;-81
2022/12/19 05:30:40;;;;;;;22.83;12.63;;;-1.80;99.90;;;;;;5027760;28;20250;-81
2022/12/19 05:33:07;;;;;;;22.87;12.70;;;-1.80;99.90;;;;;;5031568;28;20234;-81
2022/12/19 05:35:35;;;;;;;21.20;11.67;;;-1.80;99.90;;;;;;5038102;28;20230;-81
2022/12/19 05:38:02;;;;;;;20.33;12.57;;;-1.80;99.90;;;;;;5026670;28;20229;-78
2022/12/19 05:40:28;;;;;;;23.47;12.97;;;-1.80;99.90;;;;;;5035389;28;20220;-78
2022/12/19 05:42:55;;;;;;;22.33;12.83;;;-1.70;99.90;;;;;;5040025;28;20681;-85
2022/12/19 05:45:23;;;;;;;19.80;12.83;;;-1.70;99.90;;;;;;5040017;28;20313;-81
2022/12/19 05:47:50;;;;;;;18.57;12.07;;;-1.60;99.90;;;;;;5035774;28;20220;-83
2022/12/19 05:50:17;;;;;;;21.10;12.43;;;-1.70;99.90;;;;;;5035651;28;20220;-85
2022/12/19 05:52:51;;;;;;;20.10;12.43;;;-1.60;99.90;;;;;;5036107;28;20702;-83
2022/12/19 05:55:17;;;;;;;17.93;11.53;;;-1.60;99.90;;;;;;5037117;28;20312;-80
2022/12/19 05:57:44;;;;;;;20.67;12.37;;;-1.50;99.90;;;;;;5031301;28;20348;-79
2022/12/19 06:00:12;;;;;;;20.97;11.80;;;-1.50;99.90;;;;;;5030445;28;20548;-80
2022/12/19 06:02:40;;;;;;;18.67;12.20;;;-1.50;99.90;;;;;;5030635;28;20253;-83
2022/12/19 06:05:08;;;;;;;17.97;12.03;;;-1.40;99.90;;;;;;5037804;28;20246;-79
2022/12/19 06:07:34;;;;;;;20.97;12.63;;;-1.40;99.90;;;;;;5040028;28;20892;-78
2022/12/19 06:10:01;;;;;;;21.17;12.33;;;-1.30;99.90;;;;;;5037772;28;20224;-82
2022/12/19 06:12:28;;;;;;;20.90;12.10;;;-1.30;99.90;;;;;;5038692;28;20718;-81
2022/12/19 06:14:55;;;;;;;19.53;12.03;;;-1.30;99.90;;;;;;5035122;28;20253;-80
2022/12/19 06:17:22;;;;;;;21.10;12.63;;;-1.30;99.90;;;;;;5033455;28;21236;-82
2022/12/19 06:19:50;;;;;;;20.13;12.57;;;-1.30;99.90;;;;;;5034128;28;20228;-80
2022/12/19 06:22:17;;;;;;;18.63;12.43;;;-1.20;99.90;;;;;;5033332;28;20243;-80
2022/12/19 06:24:44;;;;;;;20.80;11.90;;;-1.10;99.90;;;;;;5037206;28;20224;-81
2022/12/19 06:27:10;;;;;;;19.77;11.93;;;-1.10;99.90;;;;;;5038185;28;20287;-82
2022/12/19 06:29:37;;;;;;;19.77;12.33;;;-1.10;99.90;;;;;;5040088;28;20224;-80
2022/12/19 06:32:04;;;;;;;26.10;14.37;;;-1.00;99.90;;;;;;5033365;28;20312;-83
2022/12/19 06:34:31;;;;;;;23.07;13.00;;;-1.00;99.90;;;;;;5027081;28;20704;-80
2022/12/19 06:36:59;;;;;;;24.93;14.03;;;-1.00;99.90;;;;;;5032331;28;20582;-80
2022/12/19 06:39:26;;;;;;;19.77;12.13;;;-1.00;99.90;;;;;;5033065;28;20525;-81
2022/12/19 06:44:37;;;;;;;20.57;12.50;;;-0.90;99.90;;;;;;5036489;28;20216;-82
2022/12/19 06:47:04;;;;;;;21.17;12.20;;;-0.90;99.90;;;;;;5034844;28;20547;-81
2022/12/19 06:49:31;;;;;;;21.57;12.93;;;-0.90;99.90;;;;;;5041056;28;20223;-79
2022/12/19 06:52:00;;;;;;;18.97;11.60;;;-0.90;99.90;;;;;;5043490;28;20305;-80
2022/12/19 06:54:27;;;;;;;21.00;12.17;;;-0.90;99.90;;;;;;5036974;28;20220;-80
2022/12/19 06:56:54;;;;;;;18.93;11.80;;;-0.90;99.90;;;;;;5032975;28;20213;-80
2022/12/19 06:59:20;;;;;;;17.23;11.50;;;-0.90;99.90;;;;;;5036486;28;20277;-80
2022/12/19 07:01:55;;;;;;;21.63;12.33;;;-0.90;99.90;;;;;;5037959;28;20273;-79
2022/12/19 07:04:28;;;;;;;22.27;12.30;;;-0.80;99.90;;;;;;5041489;28;20227;-79
2022/12/19 07:06:55;;;;;;;21.10;12.80;;;-0.80;99.90;;;;;;5038200;28;20319;-81
2022/12/19 07:09:23;;;;;;;19.80;11.77;;;-0.80;99.90;;;;;;5028651;28;20389;-82
2022/12/19 07:11:49;;;;;;;20.60;12.40;;;-0.70;99.90;;;;;;5039734;28;20224;-79
2022/12/19 07:14:16;;;;;;;17.80;11.37;;;-0.70;99.90;;;;;;5034369;28;20237;-80
2022/12/19 07:16:43;;;;;;;19.93;12.13;;;-0.70;99.90;;;;;;5030174;28;20219;-80
2022/12/19 07:19:10;;;;;;;23.47;12.37;;;-0.70;99.90;;;;;;5040785;28;20232;-82
2022/12/19 07:21:37;;;;;;;18.13;11.27;;;-0.60;99.90;;;;;;5035488;28;20742;-81
2022/12/19 07:24:05;;;;;;;21.33;12.47;;;-0.60;99.90;;;;;;5038562;28;20372;-80
2022/12/19 07:26:34;;;;;;;17.43;11.27;;;-0.60;99.90;;;;;;5039721;28;20322;-83
2022/12/19 07:29:01;;;;;;;20.70;11.83;;;-0.60;99.90;;;;;;5042970;28;20230;-81
2022/12/19 07:31:27;;;;;;;19.60;11.40;;;-0.50;99.90;;;;;;5036024;28;20227;-84
2022/12/19 07:33:54;;;;;;;17.80;11.47;;;-0.50;99.90;;;;;;5057138;28;20430;-82
2022/12/19 07:36:22;;;;;;;20.17;11.47;;;-0.50;99.90;;;;;;5040495;28;20634;-80
2022/12/19 07:38:49;;;;;;;19.40;11.10;;;-0.50;99.90;;;;;;5027643;28;20234;-79
2022/12/19 07:41:16;;;;;;;19.57;12.07;;;-0.50;99.90;;;;;;5037496;28;20766;-80
2022/12/19 07:43:44;;;;;;;17.80;10.90;;;-0.50;99.90;;;;;;5032491;28;20230;-82
2022/12/19 07:46:11;;;;;;;18.03;11.10;;;-0.40;99.90;;;;;;5040888;28;20520;-81
2022/12/19 07:48:37;;;;;;;18.07;11.40;;;-0.40;99.90;;;;;;5042836;28;20230;-82
2022/12/19 07:51:04;;;;;;;18.83;12.07;;;-0.40;99.90;;;;;;5038797;28;20562;-80
2022/12/19 07:53:31;;;;;;;17.60;11.87;;;-0.40;99.90;;;;;;5042140;28;20738;-82
2022/12/19 07:56:00;;;;;;;17.73;11.63;;;-0.40;99.90;;;;;;5036834;28;20656;-81
2022/12/19 07:58:26;;;;;;;21.80;12.17;;;-0.40;99.90;;;;;;5038093;28;20285;-80
2022/12/19 08:00:59;;;;;;;20.80;12.00;;;-0.40;99.90;;;;;;5040854;28;20230;-82
2022/12/19 08:03:27;;;;;;;22.87;12.63;;;-0.40;99.90;;;;;;5031052;28;20226;-82
2022/12/19 08:05:58;;;;;;;19.70;12.77;;;-0.40;99.90;;;;;;5034118;28;20239;-80
2022/12/19 08:08:25;;;;;;;18.90;11.03;;;-0.30;99.90;;;;;;5034659;28;20661;-81
2022/12/19 08:10:52;;;;;;;20.73;12.30;;;-0.40;99.90;;;;;;5035121;28;20788;-85
2022/12/19 08:13:25;;;;;;;20.50;12.37;;;-0.40;99.90;;;;;;5030086;28;20226;-80
2022/12/19 08:16:07;;;;;;;20.23;13.07;;;-0.40;99.90;;;;;;5040781;28;20224;-80
2022/12/19 08:18:43;;;;;;;19.97;12.67;;;-0.40;99.90;;;;;;5044438;28;20227;-82
2022/12/19 08:21:13;;;;;;;24.00;12.73;;;-0.30;99.90;;;;;;5037641;28;20231;-82
2022/12/19 08:23:44;;;;;;;23.80;12.73;;;-0.30;99.90;;;;;;5036304;28;20330;-82
2022/12/19 08:26:14;;;;;;;23.23;13.53;;;-0.40;99.90;;;;;;5040313;28;20631;-82
2022/12/19 08:28:41;;;;;;;30.00;16.20;;;-0.30;99.90;;;;;;5040983;28;20243;-83
2022/12/19 08:31:12;;;;;;;21.00;13.27;;;-0.30;99.90;;;;;;5029371;28;20243;-83
2022/12/19 08:33:38;;;;;;;23.33;13.10;;;-0.30;99.90;;;;;;5045700;28;20249;-79
2022/12/19 08:36:06;;;;;;;22.27;13.00;;;-0.30;99.90;;;;;;5034846;28;20235;-79
2022/12/19 08:38:33;;;;;;;22.13;13.20;;;-0.30;99.90;;;;;;5033231;28;20223;-80
2022/12/19 08:41:00;;;;;;;24.83;13.33;;;-0.30;99.90;;;;;;5040436;28;20454;-82
2022/12/19 08:43:27;;;;;;;25.20;14.10;;;-0.30;99.90;;;;;;5040887;28;20693;-81
2022/12/19 08:45:54;;;;;;;27.13;14.10;;;-0.30;99.90;;;;;;5039429;28;20342;-80
2022/12/19 08:48:22;;;;;;;30.67;15.07;;;-0.20;99.90;;;;;;5041770;28;20235;-81
2022/12/19 08:50:51;;;;;;;20.23;12.97;;;-0.10;99.90;;;;;;5040910;28;20223;-81
2022/12/19 08:53:19;;;;;;;23.13;14.03;;;-0.20;99.90;;;;;;5033677;28;20587;-79
2022/12/19 08:55:47;;;;;;;30.00;14.23;;;-0.20;99.90;;;;;;5041396;28;20223;-80
2022/12/19 08:58:14;;;;;;;28.10;14.47;;;-0.10;99.90;;;;;;5042683;28;20724;-80
2022/12/19 09:00:41;;;;;;;21.23;13.00;;;-0.10;99.90;;;;;;5026869;28;20789;-80
2022/12/19 09:03:09;;;;;;;21.10;12.80;;;-0.10;99.90;;;;;;5042382;28;20615;-81
2022/12/19 09:05:37;;;;;;;23.17;14.03;;;-0.10;99.90;;;;;;5040280;28;20645;-80
2022/12/19 09:08:05;;;;;;;115.70;20.27;;;-0.10;99.90;;;;;;5042592;28;20614;-80
2022/12/19 09:10:31;;;;;;;26.33;14.10;;;-0.10;99.90;;;;;;5039805;28;20227;-80
2022/12/19 09:12:59;;;;;;;25.10;14.47;;;-0.10;99.90;;;;;;5040042;28;20224;-80
2022/12/19 09:15:26;;;;;;;29.60;14.70;;;-0.10;99.90;;;;;;5038856;28;20231;-80
2022/12/19 09:17:53;;;;;;;25.37;15.00;;;-0.10;99.90;;;;;;5030729;28;20221;-80
2022/12/19 09:20:20;;;;;;;24.57;15.13;;;-0.10;99.90;;;;;;5041278;28;20645;-80
2022/12/19 09:22:48;;;;;;;26.53;14.93;;;-0.10;99.90;;;;;;5025937;28;20294;-80
2022/12/19 09:25:15;;;;;;;30.77;14.93;;;0.00;99.90;;;;;;5017094;28;20447;-80
2022/12/19 09:27:42;;;;;;;28.13;15.13;;;0.00;99.90;;;;;;5021321;28;20622;-81
2022/12/19 09:30:11;;;;;;;26.50;14.80;;;0.00;99.90;;;;;;5018825;28;20228;-81
2022/12/19 09:32:38;;;;;;;29.57;14.60;;;0.00;99.90;;;;;;5021505;28;20290;-81
2022/12/19 09:35:06;;;;;;;27.73;15.13;;;0.00;99.90;;;;;;5020464;28;20228;-81
2022/12/19 09:37:33;;;;;;;32.90;14.90;;;0.00;99.90;;;;;;5019507;28;20223;-81
2022/12/19 09:40:01;;;;;;;30.60;15.40;;;0.00;99.90;;;;;;5020148;28;20689;-80
2022/12/19 09:42:53;;;;;;;25.90;15.30;;;0.00;99.90;;;;;;5016858;28;20760;-79
2022/12/19 09:45:31;;;;;;;22.80;14.23;;;0.00;99.90;;;;;;5031088;28;20707;-80
2022/12/19 09:48:01;;;;;;;24.57;14.93;;;0.10;99.90;;;;;;5023291;28;20224;-78
2022/12/19 09:50:35;;;;;;;24.53;15.73;;;0.10;99.90;;;;;;5032205;28;20575;-78
2022/12/19 09:53:06;;;;;;;38.23;15.53;;;0.10;99.90;;;;;;5025370;28;20302;-78
2022/12/19 09:55:39;;;;;;;29.30;15.17;;;0.10;99.90;;;;;;5036758;28;20763;-78
2022/12/19 09:58:11;;;;;;;30.63;14.83;;;0.10;99.90;;;;;;5037090;28;20827;-78
2022/12/19 10:00:43;;;;;;;23.73;14.17;;;0.10;99.90;;;;;;5034533;28;20818;-79
2022/12/19 10:03:18;;;;;;;26.33;14.87;;;0.10;99.90;;;;;;5035672;28;20228;-79
2022/12/19 10:05:50;;;;;;;24.37;14.70;;;0.20;99.90;;;;;;5037806;28;20229;-79
2022/12/19 10:08:19;;;;;;;52.47;16.87;;;0.20;99.90;;;;;;5024943;28;20238;-80
2022/12/19 10:11:04;;;;;;;37.77;15.83;;;0.20;99.90;;;;;;5036202;28;20246;-79
2022/12/19 10:13:42;;;;;;;108.67;19.57;;;0.30;99.90;;;;;;5032924;28;20236;-81
2022/12/19 10:16:18;;;;;;;36.40;16.13;;;0.30;99.90;;;;;;5043285;28;20235;-81
2022/12/19 10:18:54;;;;;;;27.93;14.37;;;0.30;99.90;;;;;;5037432;28;20241;-82
2022/12/19 10:21:29;;;;;;;38.50;14.70;;;0.30;99.90;;;;;;5035531;28;20224;-81
2022/12/19 10:24:14;;;;;;;24.13;14.43;;;0.30;99.90;;;;;;5034459;28;20631;-82
2022/12/19 10:26:49;;;;;;;25.87;13.37;;;0.30;99.90;;;;;;5022725;28;20255;-81
2022/12/19 10:29:38;;;;;;;47.17;15.50;;;0.30;99.90;;;;;;5058824;28;20334;-81
2022/12/19 10:32:13;;;;;;;27.93;14.90;;;0.40;99.90;;;;;;5032430;28;20333;-81
2022/12/19 10:34:42;;;;;;;25.67;14.47;;;0.40;99.90;;;;;;5031060;28;20753;-81
2022/12/19 10:37:17;;;;;;;23.63;14.13;;;0.40;99.90;;;;;;5043190;28;20224;-81
2022/12/19 10:39:57;;;;;;;24.47;13.83;;;0.40;99.90;;;;;;5044176;28;20229;-81
2022/12/19 10:42:33;;;;;;;23.67;13.73;;;0.40;99.90;;;;;;5042458;28;20234;-82
2022/12/19 10:45:04;;;;;;;57.43;15.90;;;0.50;99.90;;;;;;5041848;28;20235;-81
2022/12/19 10:47:31;;;;;;;22.60;13.93;;;0.50;99.90;;;;;;5042158;28;20985;-81
2022/12/19 10:49:58;;;;;;;24.50;13.83;;;0.50;99.90;;;;;;5023238;28;20489;-81
2022/12/19 10:52:47;;;;;;;43.70;15.53;;;0.60;99.90;;;;;;5046536;28;21028;-82
2022/12/19 10:55:38;;;;;;;20.77;13.70;;;0.60;99.90;;;;;;5053148;28;20239;-81
2022/12/19 10:58:18;;;;;;;25.87;14.80;;;0.60;99.90;;;;;;5033533;28;20220;-81
2022/12/19 11:00:56;;;;;;;33.33;18.73;;;0.60;99.90;;;;;;5043141;28;20241;-81
2022/12/19 11:03:23;;;;;;;25.33;16.07;;;0.70;99.90;;;;;;5043254;28;20718;-81
2022/12/19 11:05:52;;;;;;;22.30;14.23;;;0.70;99.90;;;;;;5041457;28;20219;-80
2022/12/19 11:08:22;;;;;;;70.60;18.20;;;0.70;99.90;;;;;;5044055;28;20238;-81
2022/12/19 11:10:50;;;;;;;33.50;15.13;;;0.70;99.90;;;;;;5042135;28;20233;-81
2022/12/19 11:13:23;;;;;;;24.67;14.27;;;0.80;99.90;;;;;;5035648;28;20224;-82
2022/12/19 11:15:54;;;;;;;67.47;17.43;;;0.80;99.90;;;;;;5040780;28;20700;-81
2022/12/19 11:18:22;;;;;;;25.50;14.37;;;0.80;99.90;;;;;;5042122;28;20693;-80
2022/12/19 11:20:58;;;;;;;26.50;14.60;;;0.80;99.90;;;;;;5037542;28;20229;-80
2022/12/19 11:23:27;;;;;;;73.20;17.03;;;0.80;99.90;;;;;;5041404;28;20993;-82
2022/12/19 11:25:57;;;;;;;36.10;14.33;;;0.80;99.90;;;;;;5042559;28;20315;-80
2022/12/19 11:28:28;;;;;;;34.13;14.57;;;0.90;99.90;;;;;;5040747;28;20301;-80
2022/12/19 11:31:06;;;;;;;28.13;14.67;;;0.90;99.90;;;;;;5040653;28;21000;-80
2022/12/19 11:33:33;;;;;;;26.37;13.43;;;0.90;99.90;;;;;;5024487;28;20732;-80
2022/12/19 11:36:02;;;;;;;30.47;14.20;;;0.90;99.90;;;;;;5031932;28;20242;-80
2022/12/19 11:38:36;;;;;;;22.90;13.50;;;1.00;99.90;;;;;;5031132;28;20227;-80
2022/12/19 11:41:14;;;;;;;23.23;13.77;;;1.00;99.90;;;;;;5038901;28;20327;-80
2022/12/19 11:43:50;;;;;;;23.77;13.23;;;1.10;99.90;;;;;;5033591;28;20228;-80
2022/12/19 11:46:30;;;;;;;31.57;14.30;;;1.10;99.90;;;;;;5032840;28;20881;-80
2022/12/19 11:49:02;;;;;;;24.27;14.27;;;1.10;99.90;;;;;;5030958;28;20236;-79
2022/12/19 11:51:34;;;;;;;22.00;12.47;;;1.10;99.90;;;;;;5033817;28;20232;-80
2022/12/19 11:54:11;;;;;;;22.30;13.30;;;1.20;99.90;;;;;;5027592;28;20470;-80
2022/12/19 11:56:38;;;;;;;20.03;13.23;;;1.20;99.90;;;;;;5034957;28;20224;-79
2022/12/19 11:59:15;;;;;;;22.33;12.67;;;1.20;99.90;;;;;;5039348;28;20218;-79
2022/12/19 12:01:49;;;;;;;21.77;13.03;;;1.20;99.90;;;;;;5033788;28;20719;-79
2022/12/19 12:04:40;;;;;;;56.93;15.10;;;1.30;99.90;;;;;;5042512;28;20227;-79
2022/12/19 12:07:10;;;;;;;25.50;13.70;;;1.30;99.90;;;;;;5004803;28;20230;-79
2022/12/19 12:09:44;;;;;;;23.37;13.90;;;1.30;99.90;;;;;;5027876;28;20237;-79
2022/12/19 12:12:21;;;;;;;24.43;13.40;;;1.30;99.90;;;;;;5025962;28;20216;-79
2022/12/19 12:15:13;;;;;;;40.77;15.13;;;1.40;99.90;;;;;;5018521;28;20231;-79
2022/12/19 12:17:50;;;;;;;30.27;13.80;;;1.40;99.90;;;;;;5030669;28;20220;-79
2022/12/19 12:20:32;;;;;;;20.90;13.43;;;1.40;99.90;;;;;;5038953;28;20229;-79
2022/12/19 12:23:14;;;;;;;22.73;15.33;;;1.50;99.90;;;;;;5039685;28;20235;-79
2022/12/19 12:25:52;;;;;;;34.50;14.70;;;1.50;99.90;;;;;;5039042;28;20220;-78
2022/12/19 12:28:46;;;;;;;31.27;14.53;;;1.50;99.90;;;;;;5026847;28;20234;-78
2022/12/19 12:31:29;;;;;;;23.43;13.97;;;1.50;99.90;;;;;;5030007;28;20278;-79
2022/12/19 12:34:04;;;;;;;23.80;15.37;;;1.50;99.90;;;;;;5038662;28;20284;-79
2022/12/19 12:36:40;;;;;;;35.60;15.03;;;1.60;99.90;;;;;;5039435;28;20229;-78
2022/12/19 12:39:13;;;;;;;26.30;14.93;;;1.60;99.90;;;;;;5037983;28;20229;-78
2022/12/19 12:44:31;;;;;;;29.03;14.60;;;1.60;99.90;;;;;;5027969;28;20227;-77
2022/12/19 12:47:02;;;;;;;30.20;15.40;;;1.60;99.90;;;;;;5026954;28;20719;-78
2022/12/19 12:49:36;;;;;;;32.87;14.57;;;1.70;99.90;;;;;;5031279;28;20231;-78
2022/12/19 12:52:06;;;;;;;23.97;14.80;;;1.70;99.90;;;;;;5027965;28;20245;-78
2022/12/19 12:54:36;;;;;;;23.13;14.43;;;1.70;99.90;;;;;;5033623;28;20282;-78